Time;durP1;ratioP1;P1;durP2;ratioP2;P2;SDS_P1;SDS_P2;PMS_P1;PMS_P2;Temp;Humidity;BMP_temperature;BMP_pressure;BME280_temperature;BME280_humidity;BME280_pressure;Samples;Min_cycle;Max_cycle;Signal;HPM_P1;HPM_P2
2022/01/20 00:00:18;;;;;;;28.90;17.67;;;0.90;95.90;;;;;;6227679;28;20550;-66
2022/01/20 00:03:24;;;;;;;24.53;16.97;;;0.90;95.90;;;;;;6228810;28;20788;-66
2022/01/20 00:23:29;;;;;;;21.77;16.40;;;0.70;96.10;;;;;;6205306;28;20473;-68
2022/01/20 00:26:43;;;;;;;25.77;16.77;;;0.60;96.20;;;;;;6195631;28;20501;-66
2022/01/20 00:30:18;;;;;;;31.90;17.30;;;0.60;96.30;;;;;;6205417;28;20485;-68
2022/01/20 00:33:33;;;;;;;27.17;19.00;;;0.50;96.30;;;;;;6213644;28;20464;-68
2022/01/20 00:40:00;;;;;;;22.57;16.40;;;0.60;96.40;;;;;;6203824;28;20473;-64
2022/01/20 00:43:03;;;;;;;23.00;15.37;;;0.60;96.30;;;;;;6203895;28;20472;-67
2022/01/20 00:46:06;;;;;;;20.93;18.60;;;0.50;96.00;;;;;;6203761;28;20504;-66
2022/01/20 00:49:09;;;;;;;19.57;16.10;;;0.50;96.10;;;;;;6203780;28;20469;-67
2022/01/20 00:52:13;;;;;;;27.20;17.10;;;0.60;96.10;;;;;;6206338;28;20469;-68
2022/01/20 00:55:18;;;;;;;20.87;16.60;;;0.50;96.10;;;;;;6208969;28;20476;-68
2022/01/20 00:58:21;;;;;;;22.03;15.80;;;0.50;96.00;;;;;;6203579;28;20491;-67
2022/01/20 01:01:24;;;;;;;23.07;17.23;;;0.50;96.10;;;;;;6201682;28;20814;-67
2022/01/20 01:04:28;;;;;;;20.60;14.90;;;0.50;96.30;;;;;;6200501;28;20488;-67
2022/01/20 01:07:46;;;;;;;23.10;17.10;;;0.50;97.00;;;;;;6201115;28;20476;-67
2022/01/20 01:10:51;;;;;;;26.70;18.20;;;0.40;97.10;;;;;;6213284;28;20472;-67
2022/01/20 01:13:56;;;;;;;23.60;16.23;;;0.50;97.00;;;;;;6227125;28;20472;-67
2022/01/20 01:20:22;;;;;;;22.37;15.83;;;0.50;97.40;;;;;;6227253;28;20495;-65
2022/01/20 01:23:28;;;;;;;20.67;13.60;;;0.50;97.30;;;;;;6224749;28;20994;-66
2022/01/20 01:26:32;;;;;;;23.43;15.87;;;0.50;97.40;;;;;;6226451;28;20490;-66
2022/01/20 01:29:55;;;;;;;23.03;13.83;;;0.50;97.20;;;;;;6220486;28;20813;-65
2022/01/20 01:32:58;;;;;;;20.53;15.57;;;0.50;97.20;;;;;;6220766;28;20460;-65
2022/01/20 01:36:04;;;;;;;22.30;14.80;;;0.50;97.20;;;;;;6224982;28;20435;-66
2022/01/20 01:39:07;;;;;;;20.10;15.77;;;0.50;97.20;;;;;;6224834;28;20436;-64
2022/01/20 01:42:11;;;;;;;18.07;14.17;;;0.40;97.20;;;;;;6225027;28;20448;-64
2022/01/20 01:45:18;;;;;;;21.60;13.90;;;0.40;97.40;;;;;;6223613;28;20447;-64
2022/01/20 01:48:21;;;;;;;19.90;15.87;;;0.40;97.50;;;;;;6226446;28;20967;-65
2022/01/20 01:51:24;;;;;;;20.43;15.40;;;0.40;97.50;;;;;;6226918;28;20472;-65
2022/01/20 01:54:27;;;;;;;22.80;16.20;;;0.40;97.50;;;;;;6226804;28;20467;-65
2022/01/20 01:57:32;;;;;;;21.63;14.73;;;0.40;97.40;;;;;;6227198;28;20475;-65
2022/01/20 02:00:35;;;;;;;18.97;15.07;;;0.30;97.30;;;;;;6226242;28;20487;-66
2022/01/20 02:03:45;;;;;;;19.30;14.53;;;0.30;97.40;;;;;;6226025;28;20476;-65
2022/01/20 02:07:16;;;;;;;22.50;14.90;;;0.30;97.40;;;;;;6226248;28;20490;-65
2022/01/20 02:20:30;;;;;;;27.40;15.73;;;0.20;97.60;;;;;;6212018;28;20488;-65
2022/01/20 02:23:33;;;;;;;23.77;17.67;;;0.30;97.60;;;;;;6229362;28;20482;-67
2022/01/20 02:26:37;;;;;;;20.83;15.33;;;0.30;97.60;;;;;;6228001;28;20483;-67
2022/01/20 02:29:40;;;;;;;25.50;16.57;;;0.20;97.70;;;;;;6227239;28;20483;-64
2022/01/20 02:32:51;;;;;;;27.57;17.43;;;0.20;97.90;;;;;;6225625;28;20482;-65
2022/01/20 02:36:01;;;;;;;24.33;15.13;;;0.10;98.00;;;;;;6227370;28;20468;-64
2022/01/20 02:39:11;;;;;;;21.33;16.77;;;0.20;98.30;;;;;;6229139;28;20441;-64
2022/01/20 02:45:37;;;;;;;21.87;16.23;;;0.00;98.90;;;;;;6228614;28;20468;-64
2022/01/20 02:48:41;;;;;;;31.33;17.63;;;0.00;99.10;;;;;;6226594;28;20472;-64
2022/01/20 02:51:50;;;;;;;23.60;16.40;;;-0.10;99.10;;;;;;6227056;28;20990;-64
2022/01/20 02:54:54;;;;;;;23.63;17.23;;;-0.10;99.30;;;;;;6226820;28;20475;-64
2022/01/20 02:57:58;;;;;;;21.20;14.50;;;0.00;99.50;;;;;;6226835;28;20468;-64
2022/01/20 03:01:01;;;;;;;25.03;16.83;;;0.00;99.40;;;;;;6226386;28;20954;-63
2022/01/20 03:04:05;;;;;;;27.53;16.70;;;0.00;99.40;;;;;;6225831;28;20874;-63
2022/01/20 03:07:10;;;;;;;25.87;15.80;;;0.00;99.40;;;;;;6225827;28;20507;-63
2022/01/20 03:10:13;;;;;;;19.80;15.17;;;0.00;99.20;;;;;;6225124;28;20475;-63
2022/01/20 03:13:16;;;;;;;24.63;16.03;;;0.00;99.20;;;;;;6225465;28;20475;-63
2022/01/20 03:16:19;;;;;;;26.50;16.80;;;0.10;99.10;;;;;;6225592;28;20471;-63
2022/01/20 03:19:22;;;;;;;25.53;17.80;;;0.10;99.00;;;;;;6225337;28;20809;-63
2022/01/20 03:22:27;;;;;;;28.07;16.00;;;0.10;98.90;;;;;;6225581;28;20483;-63
2022/01/20 03:25:30;;;;;;;23.17;16.77;;;0.10;98.90;;;;;;6226708;28;20475;-63
2022/01/20 03:28:33;;;;;;;21.63;15.67;;;0.20;98.80;;;;;;6229921;28;20502;-63
2022/01/20 03:31:38;;;;;;;20.33;14.77;;;0.10;98.40;;;;;;6230002;28;20799;-63
2022/01/20 03:34:41;;;;;;;20.20;14.40;;;0.10;98.40;;;;;;6230150;28;20480;-63
2022/01/20 03:37:45;;;;;;;22.70;15.30;;;0.00;98.60;;;;;;6220546;28;20472;-63
2022/01/20 03:40:50;;;;;;;21.33;15.93;;;0.00;98.60;;;;;;6229342;28;20490;-64
2022/01/20 03:43:53;;;;;;;23.73;15.83;;;0.00;98.80;;;;;;6229819;28;20484;-66
2022/01/20 03:46:57;;;;;;;26.30;16.03;;;0.00;98.80;;;;;;6229740;28;20468;-64
2022/01/20 03:50:09;;;;;;;23.63;15.40;;;0.10;98.80;;;;;;6229499;28;20968;-65
2022/01/20 03:53:14;;;;;;;24.73;15.40;;;0.00;98.70;;;;;;6229125;28;20476;-65
2022/01/20 03:56:18;;;;;;;24.40;17.27;;;0.00;98.60;;;;;;6229399;28;20475;-65
2022/01/20 03:59:21;;;;;;;17.20;13.97;;;0.10;98.70;;;;;;6229013;28;20471;-65
2022/01/20 04:02:24;;;;;;;22.73;14.40;;;0.10;98.70;;;;;;6229208;28;20960;-66
2022/01/20 04:05:28;;;;;;;25.20;15.70;;;0.10;98.50;;;;;;6229143;28;20474;-67
2022/01/20 04:08:34;;;;;;;21.90;15.67;;;0.10;98.50;;;;;;6228666;28;20487;-67
2022/01/20 04:11:38;;;;;;;23.60;15.87;;;0.10;98.50;;;;;;6228551;28;20483;-66
2022/01/20 04:14:46;;;;;;;19.47;14.70;;;0.10;98.60;;;;;;6228445;28;20475;-66
2022/01/20 04:17:55;;;;;;;20.70;15.57;;;0.10;98.50;;;;;;6228468;28;20487;-68
2022/01/20 04:20:58;;;;;;;22.33;15.30;;;0.10;98.50;;;;;;6228476;28;20460;-67
2022/01/20 04:24:04;;;;;;;16.43;13.97;;;0.10;98.40;;;;;;6229180;28;20777;-67
2022/01/20 04:27:07;;;;;;;19.23;15.10;;;0.10;98.30;;;;;;6228093;28;20760;-67
2022/01/20 04:30:11;;;;;;;19.47;15.37;;;0.10;98.40;;;;;;6228138;28;20483;-67
2022/01/20 04:33:14;;;;;;;16.53;14.80;;;0.00;98.30;;;;;;6228747;28;20463;-66
2022/01/20 04:36:18;;;;;;;17.57;14.30;;;0.00;98.30;;;;;;6228295;28;20464;-64
2022/01/20 04:39:27;;;;;;;20.77;14.73;;;0.00;98.30;;;;;;6224145;28;20475;-64
2022/01/20 04:42:33;;;;;;;19.77;13.60;;;-0.10;98.30;;;;;;6228017;28;20534;-64
2022/01/20 04:45:42;;;;;;;18.97;13.90;;;-0.10;98.40;;;;;;6227900;28;20479;-64
2022/01/20 04:49:00;;;;;;;19.10;13.93;;;-0.20;98.90;;;;;;6227741;28;20484;-65
2022/01/20 04:58:46;;;;;;;15.07;13.50;;;-0.20;98.80;;;;;;6227620;28;20483;-65
2022/01/20 05:01:49;;;;;;;16.77;12.67;;;-0.20;98.90;;;;;;6227746;28;20472;-64
2022/01/20 05:04:53;;;;;;;19.83;14.80;;;-0.20;98.80;;;;;;6227848;28;20517;-64
2022/01/20 05:07:56;;;;;;;20.20;14.87;;;-0.20;98.70;;;;;;6227959;28;20486;-67
2022/01/20 05:11:03;;;;;;;19.60;14.27;;;-0.20;98.80;;;;;;6230597;28;20776;-65
2022/01/20 05:14:07;;;;;;;17.70;12.63;;;-0.20;98.80;;;;;;6228778;28;20859;-65
2022/01/20 05:17:10;;;;;;;16.80;12.90;;;-0.20;98.70;;;;;;6229456;28;20471;-66
2022/01/20 05:20:13;;;;;;;23.03;13.53;;;-0.20;98.70;;;;;;6230860;28;20475;-67
2022/01/20 05:23:20;;;;;;;25.27;13.40;;;-0.20;98.60;;;;;;6228332;28;21030;-67
2022/01/20 05:26:25;;;;;;;19.67;13.80;;;-0.10;98.60;;;;;;6227474;28;20472;-67
2022/01/20 05:29:28;;;;;;;15.97;12.30;;;-0.20;98.50;;;;;;6227353;28;20495;-66
2022/01/20 05:32:31;;;;;;;20.97;14.73;;;-0.20;98.60;;;;;;6226689;28;20952;-65
2022/01/20 05:35:35;;;;;;;18.47;12.70;;;-0.20;98.50;;;;;;6227114;28;20475;-65
2022/01/20 05:38:38;;;;;;;14.97;13.20;;;-0.20;98.60;;;;;;6226688;28;20526;-64
2022/01/20 05:41:42;;;;;;;20.73;13.20;;;-0.20;98.60;;;;;;6227157;28;20479;-64
2022/01/20 05:44:50;;;;;;;16.07;13.10;;;-0.30;98.60;;;;;;6226834;28;20479;-66
2022/01/20 05:48:00;;;;;;;17.93;12.93;;;-0.20;98.70;;;;;;6216505;28;20480;-65
2022/01/20 05:51:04;;;;;;;17.53;13.93;;;-0.30;98.60;;;;;;6226418;28;20449;-65
2022/01/20 05:54:08;;;;;;;18.20;14.10;;;-0.20;98.80;;;;;;6225966;28;20443;-65
2022/01/20 05:57:13;;;;;;;19.13;12.70;;;-0.30;98.90;;;;;;6227333;28;20440;-65
2022/01/20 06:00:20;;;;;;;13.80;12.40;;;-0.20;99.00;;;;;;6226140;28;20468;-66
2022/01/20 06:03:38;;;;;;;17.33;13.80;;;-0.10;99.10;;;;;;6226984;28;20479;-67
2022/01/20 06:06:41;;;;;;;14.10;11.50;;;-0.20;99.00;;;;;;6226091;28;20595;-63
2022/01/20 06:09:44;;;;;;;20.57;14.30;;;-0.10;98.90;;;;;;6226177;28;20510;-66
2022/01/20 06:12:50;;;;;;;14.77;11.33;;;-0.10;98.90;;;;;;6226728;28;20805;-67
2022/01/20 06:15:53;;;;;;;19.00;13.07;;;-0.20;98.60;;;;;;6226386;28;20472;-65
2022/01/20 06:18:56;;;;;;;13.17;11.40;;;-0.20;98.70;;;;;;6227503;28;20472;-65
2022/01/20 06:21:59;;;;;;;19.13;12.53;;;-0.10;98.70;;;;;;6227666;28;20478;-66
2022/01/20 06:25:05;;;;;;;16.77;12.80;;;0.00;98.70;;;;;;6226367;28;20485;-63
2022/01/20 06:28:09;;;;;;;18.07;12.40;;;0.00;98.60;;;;;;6226040;28;20476;-63
2022/01/20 06:31:12;;;;;;;20.53;12.50;;;0.00;98.50;;;;;;6225854;28;20476;-63
2022/01/20 06:34:18;;;;;;;15.30;13.13;;;0.00;98.50;;;;;;6226108;28;20490;-63
2022/01/20 06:37:21;;;;;;;17.83;12.23;;;0.00;98.60;;;;;;6209572;28;20467;-64
2022/01/20 06:40:25;;;;;;;19.50;14.43;;;0.00;98.40;;;;;;6226335;28;20475;-64
2022/01/20 06:43:29;;;;;;;15.63;12.73;;;0.00;98.60;;;;;;6226990;28;20772;-67
2022/01/20 06:46:33;;;;;;;16.70;14.47;;;0.00;98.70;;;;;;6227124;28;20480;-65
2022/01/20 06:49:36;;;;;;;15.97;12.87;;;0.00;98.70;;;;;;6221777;28;20819;-65
2022/01/20 06:52:40;;;;;;;22.63;15.00;;;0.10;98.80;;;;;;6225927;28;20480;-64
2022/01/20 06:55:43;;;;;;;16.93;14.77;;;0.20;98.60;;;;;;6225578;28;20800;-62
2022/01/20 06:58:48;;;;;;;15.80;13.47;;;0.20;98.60;;;;;;6225864;28;20501;-62
2022/01/20 07:01:51;;;;;;;16.97;12.63;;;0.30;98.30;;;;;;6229892;28;20488;-62
2022/01/20 07:04:55;;;;;;;16.10;14.40;;;0.30;98.40;;;;;;6230532;28;20550;-64
2022/01/20 07:07:58;;;;;;;18.27;14.43;;;0.30;98.30;;;;;;6230156;28;20795;-63
2022/01/20 07:11:01;;;;;;;17.40;13.63;;;0.40;98.30;;;;;;6229928;28;20967;-64
2022/01/20 07:14:06;;;;;;;20.87;13.77;;;0.40;98.20;;;;;;6229686;28;20838;-64
2022/01/20 07:17:10;;;;;;;21.90;14.80;;;0.50;98.20;;;;;;6230063;28;20471;-63
2022/01/20 07:20:14;;;;;;;18.13;13.27;;;0.60;98.20;;;;;;6229928;28;20471;-64
2022/01/20 07:23:17;;;;;;;14.40;11.50;;;0.70;98.10;;;;;;6230438;28;20553;-64
2022/01/20 07:26:21;;;;;;;14.03;12.53;;;0.80;98.10;;;;;;6229745;28;20491;-64
2022/01/20 07:29:26;;;;;;;14.80;11.80;;;0.80;98.10;;;;;;6229430;28;20495;-64
2022/01/20 07:32:29;;;;;;;18.77;12.67;;;0.90;98.10;;;;;;6229728;28;20852;-64
2022/01/20 07:35:32;;;;;;;16.90;12.10;;;1.00;98.00;;;;;;6229558;28;20869;-64
2022/01/20 07:38:36;;;;;;;19.83;12.60;;;1.10;97.90;;;;;;6229683;28;20480;-64
2022/01/20 07:41:39;;;;;;;16.20;12.27;;;1.20;97.70;;;;;;6229452;28;20490;-64
2022/01/20 07:44:43;;;;;;;19.50;12.67;;;1.30;97.60;;;;;;6229699;28;20478;-64
2022/01/20 07:47:47;;;;;;;17.93;12.70;;;1.30;97.60;;;;;;6231103;28;21045;-64
2022/01/20 07:50:50;;;;;;;14.30;12.80;;;1.30;97.60;;;;;;6231263;28;20499;-64
2022/01/20 07:53:53;;;;;;;17.77;13.20;;;1.40;97.60;;;;;;6229450;28;20495;-64
2022/01/20 07:56:58;;;;;;;19.83;13.90;;;1.50;97.70;;;;;;6229759;28;20614;-64
2022/01/20 08:00:05;;;;;;;19.67;14.33;;;1.60;97.70;;;;;;6228837;28;20502;-63
2022/01/20 08:03:08;;;;;;;18.47;12.57;;;1.80;97.40;;;;;;6229420;28;20444;-67
2022/01/20 08:06:12;;;;;;;15.30;13.57;;;1.90;97.30;;;;;;6231590;28;20470;-67
2022/01/20 08:09:15;;;;;;;17.40;13.17;;;2.10;97.10;;;;;;6231158;28;20735;-67
2022/01/20 08:12:18;;;;;;;16.00;12.67;;;2.30;96.80;;;;;;6229028;28;20444;-64
2022/01/20 08:15:23;;;;;;;20.00;14.37;;;2.40;96.60;;;;;;6230526;28;20943;-67
2022/01/20 08:18:26;;;;;;;18.43;14.90;;;2.50;96.00;;;;;;6229550;28;20488;-65
2022/01/20 08:21:29;;;;;;;18.20;13.63;;;2.60;96.00;;;;;;6228811;28;20475;-65
2022/01/20 08:24:32;;;;;;;23.20;13.20;;;2.70;96.20;;;;;;6229038;28;20482;-66
2022/01/20 08:27:37;;;;;;;14.87;13.23;;;2.90;96.40;;;;;;6229077;28;20486;-65
2022/01/20 08:30:42;;;;;;;20.03;14.03;;;3.20;96.00;;;;;;6230934;28;20526;-65
2022/01/20 08:33:46;;;;;;;20.70;13.27;;;3.40;95.80;;;;;;6231978;28;20530;-65
2022/01/20 08:36:50;;;;;;;28.87;15.27;;;3.60;95.40;;;;;;6232665;28;20472;-65
2022/01/20 08:39:53;;;;;;;17.10;13.13;;;3.60;94.90;;;;;;6229466;28;20468;-64
2022/01/20 08:42:57;;;;;;;19.77;12.83;;;3.70;94.90;;;;;;6228851;28;20475;-66
2022/01/20 08:46:02;;;;;;;40.13;14.57;;;3.70;94.80;;;;;;6236205;28;20915;-67
2022/01/20 08:49:05;;;;;;;20.20;15.57;;;3.70;95.00;;;;;;6209125;28;20887;-67
2022/01/20 08:52:08;;;;;;;25.20;13.87;;;3.70;95.10;;;;;;6218800;28;20468;-66
2022/01/20 08:55:12;;;;;;;23.93;16.60;;;3.80;95.30;;;;;;6228573;28;20549;-66
2022/01/20 08:58:15;;;;;;;21.73;13.90;;;3.90;95.50;;;;;;6218379;28;20476;-65
2022/01/20 09:01:19;;;;;;;18.50;13.97;;;4.10;95.40;;;;;;6226976;28;20483;-65
2022/01/20 09:04:23;;;;;;;17.80;14.20;;;4.30;95.00;;;;;;6227669;28;20487;-65
2022/01/20 09:07:26;;;;;;;19.37;13.67;;;4.40;94.60;;;;;;6227991;28;20511;-66
2022/01/20 09:10:37;;;;;;;19.83;15.47;;;4.60;94.70;;;;;;6228102;28;20491;-65
2022/01/20 09:17:02;;;;;;;29.63;16.50;;;5.30;94.00;;;;;;6227464;28;20476;-65
2022/01/20 09:20:06;;;;;;;22.23;14.77;;;5.60;93.40;;;;;;6227111;28;20527;-67
2022/01/20 09:23:09;;;;;;;18.07;12.43;;;5.80;92.70;;;;;;6226538;28;20492;-67
2022/01/20 09:26:12;;;;;;;20.07;15.43;;;6.10;92.10;;;;;;6227468;28;20839;-67
2022/01/20 09:29:20;;;;;;;22.40;15.33;;;6.40;91.40;;;;;;6227672;28;20954;-66
2022/01/20 09:32:27;;;;;;;23.27;13.97;;;6.40;90.80;;;;;;6227917;28;20809;-66
2022/01/20 09:35:32;;;;;;;18.07;14.97;;;6.60;90.60;;;;;;6227317;28;20987;-66
2022/01/20 09:38:35;;;;;;;18.80;14.60;;;6.70;90.10;;;;;;6227726;28;20483;-67
2022/01/20 09:41:39;;;;;;;19.07;15.57;;;6.90;90.60;;;;;;6227998;28;20471;-67
2022/01/20 09:44:45;;;;;;;17.97;16.07;;;7.00;89.90;;;;;;6227512;28;20486;-67
2022/01/20 09:47:51;;;;;;;21.67;15.50;;;7.10;89.10;;;;;;6227591;28;20938;-68
2022/01/20 09:50:55;;;;;;;22.27;16.27;;;7.10;88.20;;;;;;6233639;28;20483;-67
2022/01/20 09:53:58;;;;;;;19.67;15.87;;;7.10;87.40;;;;;;6250701;28;20485;-68
2022/01/20 09:57:01;;;;;;;19.07;16.10;;;7.10;88.10;;;;;;6250787;28;20466;-64
2022/01/20 10:00:08;;;;;;;21.97;16.03;;;7.30;88.00;;;;;;6251614;28;20471;-66
2022/01/20 10:03:15;;;;;;;24.23;15.60;;;7.50;87.80;;;;;;6251662;28;20439;-67
2022/01/20 10:06:18;;;;;;;19.80;14.93;;;7.50;86.10;;;;;;6252639;28;20439;-68
2022/01/20 10:09:28;;;;;;;18.00;15.40;;;7.50;85.90;;;;;;6252712;28;20463;-67
2022/01/20 10:12:34;;;;;;;31.27;25.80;;;7.50;86.40;;;;;;6250709;28;20479;-67
2022/01/20 10:15:38;;;;;;;52.97;37.30;;;7.50;86.50;;;;;;6252168;28;20462;-68
2022/01/20 10:18:48;;;;;;;36.43;23.60;;;7.60;86.50;;;;;;6236708;28;20487;-67
2022/01/20 10:21:52;;;;;;;26.93;18.43;;;7.70;85.70;;;;;;6228320;28;20476;-65
2022/01/20 10:25:02;;;;;;;30.20;20.07;;;7.90;85.20;;;;;;6228652;28;20530;-68
2022/01/20 10:28:09;;;;;;;25.93;17.73;;;8.30;84.30;;;;;;6226736;28;20992;-68
2022/01/20 10:31:12;;;;;;;21.60;16.20;;;8.70;82.80;;;;;;6226268;28;20487;-67
2022/01/20 10:34:30;;;;;;;24.87;16.90;;;9.00;81.00;;;;;;6225331;28;21014;-67
2022/01/20 10:37:33;;;;;;;19.47;15.57;;;9.20;80.00;;;;;;6226314;28;20991;-67
2022/01/20 10:40:46;;;;;;;25.13;17.00;;;9.50;79.40;;;;;;6225848;28;20472;-68
2022/01/20 10:43:59;;;;;;;25.50;17.67;;;9.80;77.40;;;;;;6225512;28;20982;-66
2022/01/20 10:47:05;;;;;;;22.40;16.43;;;9.70;75.30;;;;;;6225715;28;20972;-65
2022/01/20 10:50:15;;;;;;;24.10;16.77;;;10.00;75.80;;;;;;6226413;28;20480;-66
2022/01/20 10:53:20;;;;;;;23.73;17.03;;;10.20;73.50;;;;;;6250358;28;20479;-63
2022/01/20 10:56:24;;;;;;;25.13;18.73;;;10.20;72.70;;;;;;6250080;28;20471;-64
2022/01/20 10:59:27;;;;;;;27.80;18.03;;;10.50;72.40;;;;;;6250216;28;20807;-64
2022/01/20 11:02:31;;;;;;;25.83;18.27;;;10.80;71.40;;;;;;6249779;28;20467;-65
2022/01/20 11:05:35;;;;;;;18.87;15.43;;;11.10;69.70;;;;;;6250301;28;20475;-65
2022/01/20 11:08:40;;;;;;;23.93;16.23;;;13.10;65.60;;;;;;6238967;28;20943;-65
2022/01/20 11:11:46;;;;;;;22.53;17.90;;;16.30;55.60;;;;;;6224775;28;20556;-65
2022/01/20 11:14:52;;;;;;;24.93;16.00;;;17.50;48.70;;;;;;6224780;28;20471;-65
2022/01/20 11:17:56;;;;;;;25.40;16.03;;;17.30;46.30;;;;;;6222738;28;20479;-64
2022/01/20 11:21:02;;;;;;;20.00;14.27;;;16.70;45.10;;;;;;6224277;28;20487;-65
2022/01/20 11:24:16;;;;;;;20.30;14.20;;;16.80;44.00;;;;;;6224229;28;20460;-65
2022/01/20 11:27:19;;;;;;;15.93;12.50;;;16.70;44.00;;;;;;6221987;28;20433;-65
2022/01/20 11:30:26;;;;;;;19.00;13.80;;;18.00;41.60;;;;;;6224607;28;20472;-65
2022/01/20 11:33:37;;;;;;;15.87;12.10;;;18.00;40.30;;;;;;6224371;28;20479;-65
2022/01/20 11:36:42;;;;;;;18.87;12.30;;;17.50;39.80;;;;;;6224354;28;20472;-65
2022/01/20 11:40:17;;;;;;;17.40;13.03;;;16.70;40.70;;;;;;6223188;28;21939;-65
2022/01/20 11:43:31;;;;;;;14.37;12.20;;;15.70;41.60;;;;;;6224477;28;20595;-65
2022/01/20 11:46:39;;;;;;;15.93;13.70;;;14.70;43.40;;;;;;6225987;28;20577;-65
2022/01/20 11:49:44;;;;;;;21.17;17.10;;;13.90;45.00;;;;;;6228447;28;20939;-65
2022/01/20 11:52:49;;;;;;;28.00;19.60;;;13.10;48.30;;;;;;6228574;28;20468;-65
2022/01/20 11:56:04;;;;;;;22.73;17.37;;;12.10;51.20;;;;;;6228713;28;20506;-65
2022/01/20 11:59:09;;;;;;;20.43;18.33;;;11.80;52.20;;;;;;6228294;28;20468;-64
2022/01/20 12:02:26;;;;;;;28.90;16.90;;;11.70;53.60;;;;;;6228671;28;20543;-65
2022/01/20 12:05:32;;;;;;;23.80;17.43;;;12.10;53.30;;;;;;6226546;28;20472;-65
2022/01/20 12:08:37;;;;;;;23.00;18.03;;;12.70;51.50;;;;;;6228627;28;20475;-66
2022/01/20 12:11:42;;;;;;;24.07;16.97;;;12.70;51.40;;;;;;6228160;28;20510;-68
2022/01/20 12:14:46;;;;;;;20.63;17.77;;;12.50;51.60;;;;;;6228927;28;20471;-68
2022/01/20 12:17:50;;;;;;;24.70;17.47;;;12.10;52.10;;;;;;6228800;28;20479;-66
2022/01/20 12:20:54;;;;;;;20.67;17.23;;;11.90;52.60;;;;;;6228473;28;20490;-66
2022/01/20 12:24:00;;;;;;;21.00;16.93;;;11.40;53.60;;;;;;6228667;28;20975;-68
2022/01/20 12:27:15;;;;;;;27.63;16.93;;;11.30;54.50;;;;;;6228299;28;20799;-67
2022/01/20 12:30:24;;;;;;;21.60;15.93;;;11.10;54.70;;;;;;6229337;28;20925;-65
2022/01/20 12:33:30;;;;;;;17.63;15.73;;;11.00;55.30;;;;;;6228006;28;20798;-67
2022/01/20 12:36:38;;;;;;;19.10;15.70;;;10.90;55.20;;;;;;6227935;28;20467;-66
2022/01/20 12:39:43;;;;;;;53.50;38.57;;;10.90;55.20;;;;;;6228344;28;20964;-67
2022/01/20 12:42:47;;;;;;;27.70;18.63;;;10.80;56.90;;;;;;6225279;28;20771;-67
2022/01/20 12:45:58;;;;;;;25.77;17.33;;;10.60;57.20;;;;;;6203696;28;20798;-66
2022/01/20 12:49:04;;;;;;;27.07;17.50;;;11.20;56.20;;;;;;6203724;28;20484;-67
2022/01/20 12:52:08;;;;;;;18.97;16.97;;;11.70;55.20;;;;;;6186719;28;20497;-66
2022/01/20 12:55:13;;;;;;;21.03;17.83;;;12.60;53.60;;;;;;6179776;28;20473;-67
2022/01/20 12:58:16;;;;;;;22.47;18.00;;;13.40;51.00;;;;;;6179574;28;20483;-66
2022/01/20 13:01:20;;;;;;;27.07;18.00;;;14.00;50.40;;;;;;6179378;28;20823;-65
2022/01/20 13:04:25;;;;;;;22.40;17.40;;;15.20;49.50;;;;;;6184100;28;20502;-66
2022/01/20 13:07:29;;;;;;;20.03;16.90;;;17.50;45.90;;;;;;6196580;28;20476;-67
2022/01/20 13:11:08;;;;;;;24.00;16.87;;;19.80;41.80;;;;;;6178789;28;20859;-67
2022/01/20 13:14:12;;;;;;;26.83;18.07;;;19.50;38.70;;;;;;6191273;28;20913;-67
2022/01/20 13:17:22;;;;;;;27.67;19.57;;;18.40;39.20;;;;;;6204095;28;20484;-66
2022/01/20 13:20:25;;;;;;;22.53;18.40;;;16.50;41.50;;;;;;6203551;28;20519;-66
2022/01/20 13:26:55;;;;;;;32.57;19.77;;;14.70;45.20;;;;;;6209186;28;20486;-66
2022/01/20 13:29:58;;;;;;;24.17;17.17;;;14.30;45.60;;;;;;6209518;28;20477;-66
2022/01/20 13:33:01;;;;;;;22.57;17.03;;;14.10;46.70;;;;;;6210519;28;20485;-66
2022/01/20 13:36:05;;;;;;;26.07;17.40;;;14.40;46.30;;;;;;6212686;28;20468;-66
2022/01/20 13:39:08;;;;;;;22.30;17.53;;;14.00;46.50;;;;;;6213992;28;20445;-67
2022/01/20 13:42:26;;;;;;;21.30;16.97;;;13.70;47.60;;;;;;6209601;28;20448;-67
2022/01/20 13:45:38;;;;;;;8.67;6.80;;;14.80;46.80;;;;;;6209898;28;20465;-66
2022/01/20 13:48:42;;;;;;;15.97;12.17;;;14.10;41.70;;;;;;6210486;28;20477;-68
2022/01/20 13:51:45;;;;;;;21.83;17.20;;;13.00;45.30;;;;;;6205424;28;20540;-69
2022/01/20 13:54:51;;;;;;;9.57;7.43;;;12.20;45.00;;;;;;6203368;28;20487;-67
2022/01/20 13:58:24;;;;;;;10.40;6.00;;;11.60;45.40;;;;;;6203432;28;20810;-67
2022/01/20 14:01:27;;;;;;;17.03;11.43;;;11.20;43.90;;;;;;6203169;28;20805;-67
2022/01/20 14:04:30;;;;;;;11.73;7.40;;;11.10;47.00;;;;;;6202341;28;20484;-67
2022/01/20 14:07:34;;;;;;;18.10;12.37;;;10.90;46.00;;;;;;6202230;28;20476;-65
2022/01/20 14:10:37;;;;;;;4.20;2.30;;;11.30;48.50;;;;;;6211318;28;20479;-66
2022/01/20 14:13:43;;;;;;;1.47;1.17;;;12.70;40.70;;;;;;6207927;28;20813;-67
2022/01/20 14:16:46;;;;;;;0.77;0.73;;;13.10;35.70;;;;;;6201817;28;20981;-68
2022/01/20 14:19:55;;;;;;;1.73;0.83;;;12.70;34.40;;;;;;6201767;28;20574;-63
2022/01/20 14:23:02;;;;;;;1.13;0.90;;;12.10;35.50;;;;;;6202205;28;20800;-67
2022/01/20 14:26:07;;;;;;;3.40;1.00;;;12.60;36.10;;;;;;6202086;28;20812;-67
2022/01/20 14:29:12;;;;;;;0.83;0.60;;;13.10;33.00;;;;;;6201636;28;20468;-67
2022/01/20 14:32:16;;;;;;;1.70;0.70;;;13.30;32.60;;;;;;6201676;28;20487;-66
2022/01/20 14:35:21;;;;;;;1.00;0.50;;;13.30;32.30;;;;;;6201815;28;20484;-67
2022/01/20 14:38:36;;;;;;;0.63;0.53;;;13.20;32.00;;;;;;6201675;28;20477;-65
2022/01/20 14:41:39;;;;;;;5.40;1.07;;;12.80;32.60;;;;;;6201647;28;20484;-67
2022/01/20 14:44:45;;;;;;;5.13;1.10;;;12.40;32.90;;;;;;6202109;28;20957;-68
2022/01/20 14:47:53;;;;;;;1.03;0.53;;;11.90;34.10;;;;;;6202402;28;20481;-66
2022/01/20 14:50:56;;;;;;;0.90;0.73;;;11.50;35.30;;;;;;6207349;28;20490;-68
2022/01/20 14:54:00;;;;;;;1.40;0.90;;;11.20;35.80;;;;;;6224441;28;20980;-67
2022/01/20 14:57:03;;;;;;;1.17;0.70;;;10.90;37.40;;;;;;6224661;28;20456;-71
2022/01/20 15:00:12;;;;;;;1.00;0.90;;;10.60;38.00;;;;;;6224897;28;20487;-67
2022/01/20 15:03:15;;;;;;;2.53;1.50;;;10.30;38.40;;;;;;6225616;28;20435;-64
2022/01/20 15:06:18;;;;;;;1.33;0.50;;;10.00;38.80;;;;;;6226881;28;20444;-69
2022/01/20 15:09:21;;;;;;;2.10;1.00;;;9.70;40.10;;;;;;6226888;28;20467;-65
2022/01/20 15:12:24;;;;;;;1.17;0.77;;;9.40;40.30;;;;;;6250841;28;20482;-65
2022/01/20 15:15:31;;;;;;;1.90;0.97;;;9.20;41.50;;;;;;6251517;28;20478;-67
2022/01/20 15:18:34;;;;;;;2.33;0.70;;;9.00;42.40;;;;;;6246647;28;20462;-66
2022/01/20 15:21:38;;;;;;;0.73;0.60;;;8.90;43.20;;;;;;6254204;28;20474;-66
2022/01/20 15:24:41;;;;;;;1.60;0.70;;;8.70;43.60;;;;;;6255752;28;20471;-66
2022/01/20 15:27:45;;;;;;;1.17;0.70;;;8.50;44.10;;;;;;6256211;28;20477;-66
2022/01/20 15:30:49;;;;;;;0.77;0.70;;;8.40;44.10;;;;;;6255791;28;20782;-67
2022/01/20 15:33:53;;;;;;;1.23;0.70;;;8.30;44.90;;;;;;6255126;28;21088;-67
2022/01/20 15:36:56;;;;;;;0.70;0.70;;;8.20;44.30;;;;;;6255345;28;20474;-65
2022/01/20 15:39:59;;;;;;;1.33;0.63;;;8.00;44.90;;;;;;6254616;28;20479;-66
2022/01/20 15:43:02;;;;;;;5.33;1.83;;;7.90;45.10;;;;;;6250663;28;20520;-66
2022/01/20 15:46:08;;;;;;;3.70;1.23;;;7.80;45.60;;;;;;6230430;28;20610;-65
2022/01/20 15:49:11;;;;;;;0.80;0.70;;;7.80;46.10;;;;;;6229282;28;20812;-66
2022/01/20 15:52:14;;;;;;;1.43;0.80;;;7.70;46.80;;;;;;6247967;28;20532;-67
2022/01/20 15:55:18;;;;;;;1.27;1.17;;;7.60;46.90;;;;;;6253885;28;20796;-67
2022/01/20 15:58:21;;;;;;;4.33;4.00;;;7.50;47.70;;;;;;6253654;28;20478;-65
2022/01/20 16:01:25;;;;;;;2.53;1.57;;;7.40;48.80;;;;;;6254434;28;20478;-65
2022/01/20 16:04:28;;;;;;;1.20;1.10;;;7.30;48.50;;;;;;6254083;28;20489;-66
2022/01/20 16:07:32;;;;;;;2.43;2.20;;;7.30;48.80;;;;;;6254297;28;20977;-65
2022/01/20 16:10:37;;;;;;;1.70;0.90;;;7.30;49.00;;;;;;6254338;28;20817;-66
2022/01/20 16:13:40;;;;;;;2.40;1.30;;;7.30;49.00;;;;;;6255427;28;20487;-65
2022/01/20 16:16:45;;;;;;;2.70;1.03;;;7.30;49.60;;;;;;6253855;28;20992;-65
2022/01/20 16:19:48;;;;;;;2.00;1.30;;;7.30;50.70;;;;;;6253681;28;20495;-65
2022/01/20 16:22:51;;;;;;;1.33;1.23;;;7.30;51.40;;;;;;6253133;28;20516;-64
2022/01/20 16:25:55;;;;;;;2.13;1.57;;;7.30;50.80;;;;;;6248261;28;20475;-64
2022/01/20 16:28:59;;;;;;;2.37;2.07;;;7.30;50.40;;;;;;6252866;28;20467;-65
2022/01/20 16:32:04;;;;;;;4.63;3.17;;;7.20;50.30;;;;;;6252038;28;20467;-64
2022/01/20 16:35:08;;;;;;;2.10;1.90;;;7.20;50.40;;;;;;6252674;28;20467;-64
2022/01/20 16:38:11;;;;;;;1.80;1.70;;;7.10;50.50;;;;;;6252109;28;20811;-64
2022/01/20 16:41:15;;;;;;;7.17;2.60;;;7.10;50.40;;;;;;6252134;28;20475;-64